createdAt,value
2023-05-02T00:00:47.910Z,100164.16
2023-05-02T00:05:54.449Z,100161.66
2023-05-02T00:11:03.724Z,100169.66
2023-05-02T00:16:11.392Z,100169.59
2023-05-02T00:21:21.078Z,100173.66
2023-05-02T00:26:24.803Z,100171.13
2023-05-02T00:31:29.539Z,100160.84
2023-05-02T00:36:36.656Z,100164.41
2023-05-02T00:41:41.958Z,100169.06
2023-05-02T00:47:10.044Z,100170.94
2023-05-02T00:52:29.004Z,100177.38
2023-05-02T00:57:32.907Z,100182.88
2023-05-02T01:02:49.952Z,100184.88
2023-05-02T01:08:11.820Z,100184.81
2023-05-02T01:13:22.071Z,100178.66
2023-05-02T01:18:29.979Z,100189.09
2023-05-02T01:23:42.331Z,100197.38
2023-05-02T01:29:05.385Z,100211.25
2023-05-02T01:34:11.956Z,100215.41
2023-05-02T01:39:20.453Z,100216.25
2023-05-02T01:44:32.826Z,100218.59
2023-05-02T01:49:38.625Z,100225.47
2023-05-02T01:54:43.158Z,100220.22
2023-05-02T01:59:52.888Z,100228.53
2023-05-02T02:04:57.586Z,100236.19
2023-05-02T02:10:03.082Z,100232.03
2023-05-02T02:15:15.213Z,100237.00
2023-05-02T02:20:18.864Z,100241.16
2023-05-02T02:25:22.174Z,100251.34
2023-05-02T02:30:27.261Z,100257.41
2023-05-02T02:35:35.647Z,100267.78
2023-05-02T02:40:46.182Z,100268.47
2023-05-02T02:45:59.486Z,100265.53
2023-05-02T02:51:14.230Z,100278.53
2023-05-02T02:56:21.680Z,100285.44
2023-05-02T03:01:31.434Z,100294.13
2023-05-02T03:06:34.896Z,100289.84
2023-05-02T03:11:38.138Z,100296.75
2023-05-02T03:16:43.306Z,100296.75
2023-05-02T03:21:46.925Z,100307.13
2023-05-02T03:26:50.238Z,100298.28
2023-05-02T03:31:55.206Z,100301.56
2023-05-02T03:36:58.487Z,100321.59
2023-05-02T03:42:01.881Z,100318.16
2023-05-02T03:47:07.798Z,100328.38
2023-05-02T03:52:13.435Z,100335.16
2023-05-02T03:57:16.627Z,100334.44
2023-05-02T04:02:25.837Z,100346.63
2023-05-02T04:07:29.129Z,100365.69
2023-05-02T04:12:32.356Z,100363.88
2023-05-02T04:17:37.055Z,100377.69
2023-05-02T04:22:40.944Z,100388.75
2023-05-02T04:27:44.224Z,100398.16
2023-05-02T04:32:49.391Z,100399.50
2023-05-02T04:37:52.869Z,100414.97
2023-05-02T04:42:56.076Z,100423.53
2023-05-02T04:48:00.729Z,100429.47
2023-05-02T04:53:03.961Z,100429.06
2023-05-02T04:58:07.040Z,100432.91
2023-05-02T05:03:12.004Z,100449.63
2023-05-02T05:08:19.169Z,100459.25
2023-05-02T05:13:22.196Z,100472.94
2023-05-02T05:18:40.330Z,100485.34
2023-05-02T05:23:46.417Z,100497.78
2023-05-02T05:28:50.745Z,100496.09
2023-05-02T05:33:55.417Z,100510.22
2023-05-02T05:38:58.823Z,100511.84
2023-05-02T05:44:02.150Z,100514.75
2023-05-02T05:49:07.446Z,100528.69
2023-05-02T05:54:10.614Z,100539.72
2023-05-02T05:59:13.814Z,100552.44
2023-05-02T06:04:18.479Z,100557.03
2023-05-02T06:09:21.947Z,100567.38
2023-05-02T06:14:25.430Z,100571.53
2023-05-02T06:19:29.999Z,100581.63
2023-05-02T06:24:33.439Z,100587.28
2023-05-02T06:29:36.824Z,100595.44
2023-05-02T06:34:41.903Z,100601.31
2023-05-02T06:39:45.166Z,100609.59
2023-05-02T06:44:49.384Z,100615.78
2023-05-02T06:49:54.119Z,100631.66
2023-05-02T06:54:57.497Z,100640.78
2023-05-02T07:00:00.972Z,100649.34
2023-05-02T07:05:06.470Z,100659.78
2023-05-02T07:10:10.574Z,100671.13
2023-05-02T07:15:14.471Z,100678.28
2023-05-02T07:20:26.657Z,100676.09
2023-05-02T07:25:30.129Z,100687.31
2023-05-02T07:30:33.447Z,100683.00
2023-05-02T07:35:38.392Z,100695.28
2023-05-02T07:40:41.534Z,100699.81
2023-05-02T07:45:45.063Z,100701.50
2023-05-02T07:50:50.030Z,100705.59
2023-05-02T07:55:53.307Z,100713.88
2023-05-02T08:00:56.466Z,100725.84
2023-05-02T08:06:09.736Z,100737.28
2023-05-02T08:11:12.977Z,100748.91
2023-05-02T08:16:16.209Z,100754.59
2023-05-02T08:21:20.815Z,100762.28
2023-05-02T08:26:24.940Z,100770.72
2023-05-02T08:31:33.640Z,100774.03
2023-05-02T08:36:38.413Z,100779.19
2023-05-02T08:41:41.601Z,100775.06
2023-05-02T08:46:50.262Z,100779.84
2023-05-02T08:51:58.470Z,100783.50
2023-05-02T08:57:03.608Z,100792.56
2023-05-02T09:02:19.327Z,100797.09
2023-05-02T09:07:24.126Z,100807.66
2023-05-02T09:12:27.961Z,100814.16
2023-05-02T09:17:41.705Z,100812.50
2023-05-02T09:22:52.504Z,100798.56
2023-05-02T09:28:02.256Z,100820.19
2023-05-02T09:33:05.916Z,100810.78
2023-05-02T09:38:21.252Z,100814.03
2023-05-02T09:43:24.976Z,100822.00
2023-05-02T09:48:29.997Z,100818.06
2023-05-02T09:53:34.511Z,100819.38
2023-05-02T09:58:38.814Z,100820.53
2023-05-02T10:03:42.798Z,100828.78
2023-05-02T10:08:49.543Z,100822.88
2023-05-02T10:13:53.676Z,100829.06
2023-05-02T10:19:04.418Z,100827.31
2023-05-02T10:24:09.322Z,100839.22
2023-05-02T10:29:13.072Z,100835.09
2023-05-02T10:34:17.516Z,100835.44
2023-05-02T10:39:25.744Z,100834.94
2023-05-02T10:44:36.040Z,100839.72
2023-05-02T10:49:52.428Z,100835.44
2023-05-02T10:55:15.553Z,100834.59
2023-05-02T11:00:26.543Z,100827.00
2023-05-02T11:05:30.554Z,100832.47
2023-05-02T11:10:35.231Z,100838.22
2023-05-02T11:15:58.245Z,100846.16
2023-05-02T11:21:29.883Z,100831.41
2023-05-02T11:26:40.819Z,100835.88
2023-05-02T11:32:05.419Z,100850.94
2023-05-02T11:37:13.544Z,100871.88
2023-05-02T11:42:32.154Z,100881.97
2023-05-02T11:47:36.159Z,100880.06
2023-05-02T11:52:40.333Z,100893.94
2023-05-02T11:57:44.896Z,100906.69
2023-05-02T12:02:52.112Z,100921.06
2023-05-02T12:07:57.686Z,100926.19
2023-05-02T12:13:08.382Z,100932.72
2023-05-02T12:18:14.462Z,100929.72
2023-05-02T12:23:18.017Z,100929.09
2023-05-02T12:28:24.546Z,100929.72
2023-05-02T12:33:27.703Z,100935.66
2023-05-02T12:38:31.012Z,100950.69
2023-05-02T12:43:48.457Z,100960.16
2023-05-02T12:49:03.416Z,100955.97
2023-05-02T12:54:07.230Z,100962.16
2023-05-02T12:59:26.525Z,100957.63
2023-05-02T13:04:39.205Z,100949.31
2023-05-02T13:09:42.368Z,100971.84
2023-05-02T13:14:46.971Z,100973.94
2023-05-02T13:20:00.895Z,100980.88
2023-05-02T13:25:05.310Z,100987.13
2023-05-02T13:30:12.063Z,100999.63
2023-05-02T13:35:16.015Z,101004.69
2023-05-02T13:40:19.390Z,100998.56
2023-05-02T13:45:24.788Z,101007.22
2023-05-02T13:50:28.175Z,101008.31
2023-05-02T13:55:31.516Z,101018.72
2023-05-02T14:00:36.542Z,101032.47
2023-05-02T14:05:43.803Z,101020.88
2023-05-02T14:10:47.341Z,101019.75
2023-05-02T14:15:52.101Z,101029.59
2023-05-02T14:20:55.647Z,101031.25
2023-05-02T14:26:00.465Z,101031.13
2023-05-02T14:31:05.468Z,101033.59
2023-05-02T14:36:08.728Z,101026.91
2023-05-02T14:41:12.017Z,101026.16
2023-05-02T14:46:16.641Z,101020.56
2023-05-02T14:51:20.247Z,101032.19
2023-05-02T14:56:24.534Z,101044.72
2023-05-02T15:01:30.581Z,101048.50
2023-05-02T15:06:34.443Z,101053.41
2023-05-02T15:11:38.011Z,101054.09
2023-05-02T15:16:42.597Z,101054.78
2023-05-02T15:21:46.683Z,101058.47
2023-05-02T15:26:49.982Z,101061.78
2023-05-02T15:31:55.740Z,101069.34
2023-05-02T15:37:01.170Z,101070.94
2023-05-02T15:42:05.086Z,101069.38
2023-05-02T15:47:09.653Z,101086.09
2023-05-02T15:52:13.446Z,101083.63
2023-05-02T15:57:16.566Z,101089.28
2023-05-02T16:02:21.997Z,101096.34
2023-05-02T16:07:25.404Z,101098.75
2023-05-02T16:12:29.254Z,101103.50
2023-05-02T16:17:33.991Z,101110.59
2023-05-02T16:22:37.269Z,101105.50
2023-05-02T16:27:40.989Z,101112.69
2023-05-02T16:32:45.617Z,101127.53
2023-05-02T16:37:49.610Z,101122.41
2023-05-02T16:42:52.899Z,101130.31
2023-05-02T16:47:58.030Z,101150.16
2023-05-02T16:53:03.767Z,101144.47
2023-05-02T16:58:06.966Z,101145.50
2023-05-02T17:03:12.022Z,101150.84
2023-05-02T17:08:17.031Z,101168.97
2023-05-02T17:13:20.336Z,101169.81
2023-05-02T17:18:26.644Z,101164.34
2023-05-02T17:23:30.378Z,101171.97
2023-05-02T17:28:33.846Z,101181.91
2023-05-02T17:33:38.599Z,101179.69
2023-05-02T17:38:42.028Z,101194.34
2023-05-02T17:43:45.204Z,101203.69
2023-05-02T17:48:49.772Z,101195.75
2023-05-02T17:53:53.022Z,101206.66
2023-05-02T17:58:58.027Z,101219.50
2023-05-02T18:04:07.479Z,101217.25
2023-05-02T18:09:11.684Z,101225.06
2023-05-02T18:14:15.676Z,101222.91
2023-05-02T18:19:23.461Z,101219.22
2023-05-02T18:24:28.417Z,101222.13
2023-05-02T18:29:35.651Z,101227.63
2023-05-02T18:34:42.880Z,101234.22
2023-05-02T18:39:50.841Z,101238.88
2023-05-02T18:44:59.366Z,101248.94
2023-05-02T18:50:12.149Z,101257.44
2023-05-02T18:55:16.714Z,101258.22
2023-05-02T19:00:24.697Z,101267.06
2023-05-02T19:05:40.366Z,101271.97
2023-05-02T19:10:46.725Z,101272.34
2023-05-02T19:15:54.571Z,101282.38
2023-05-02T19:21:13.044Z,101293.28
2023-05-02T19:26:30.153Z,101299.69
2023-05-02T19:31:36.415Z,101305.28
2023-05-02T19:36:52.264Z,101301.91
2023-05-02T19:41:59.265Z,101308.41
2023-05-02T19:47:14.603Z,101305.63
2023-05-02T19:52:32.813Z,101316.28
2023-05-02T19:57:54.486Z,101315.47
2023-05-02T20:03:07.864Z,101324.00
2023-05-02T20:08:32.137Z,101323.81
2023-05-02T20:13:37.920Z,101326.59
2023-05-02T20:18:48.378Z,101337.16
2023-05-02T20:23:57.006Z,101329.13
2023-05-02T20:29:10.984Z,101343.78
2023-05-02T20:34:18.656Z,101349.66
2023-05-02T20:39:29.911Z,101348.88
2023-05-02T20:44:46.264Z,101359.34
2023-05-02T20:49:51.244Z,101364.81
2023-05-02T20:54:57.870Z,101359.47
2023-05-02T21:00:05.160Z,101375.78
2023-05-02T21:05:10.050Z,101374.09
2023-05-02T21:10:16.482Z,101381.00
2023-05-02T21:15:21.756Z,101382.88
2023-05-02T21:20:28.737Z,101385.66
2023-05-02T21:25:34.608Z,101383.25
2023-05-02T21:30:40.343Z,101385.97
2023-05-02T21:35:46.818Z,101386.38
2023-05-02T21:40:53.824Z,101388.53
2023-05-02T21:45:58.611Z,101390.53
2023-05-02T21:51:03.362Z,101386.53
2023-05-02T21:56:12.175Z,101383.19
2023-05-02T22:01:17.066Z,101398.00
2023-05-02T22:06:21.677Z,101397.47
2023-05-02T22:11:32.032Z,101409.31
2023-05-02T22:16:37.790Z,101405.66
2023-05-02T22:21:42.105Z,101409.78
2023-05-02T22:26:55.836Z,101414.88
2023-05-02T22:32:01.465Z,101414.06
2023-05-02T22:37:07.597Z,101429.63
2023-05-02T22:42:14.610Z,101418.53
2023-05-02T22:47:19.628Z,101430.22
2023-05-02T22:52:27.584Z,101431.44
2023-05-02T22:57:33.316Z,101433.22
2023-05-02T23:02:38.624Z,101443.56
2023-05-02T23:07:42.968Z,101436.13
2023-05-02T23:12:48.705Z,101429.88
2023-05-02T23:17:53.052Z,101439.25
2023-05-02T23:22:59.912Z,101442.31
2023-05-02T23:28:16.052Z,101444.19
2023-05-02T23:33:21.417Z,101454.16
2023-05-02T23:38:26.518Z,101452.47
2023-05-02T23:43:34.718Z,101460.50
2023-05-02T23:48:41.720Z,101457.16
2023-05-02T23:53:47.130Z,101448.53
2023-05-02T23:58:55.434Z,101455.63
